sensor_id;sensor_type;location;lat;lon;timestamp;pressure;altitude;pressure_sealevel;temperature;humidity
36798;BME280;22748;8.426;99.512;2023-04-04T00:01:47;100586.78;;;28.98;62.90
36798;BME280;22748;8.426;99.512;2023-04-04T00:04:19;100596.94;;;28.96;62.81
36798;BME280;22748;8.426;99.512;2023-04-04T00:06:51;100595.28;;;28.95;63.34
36798;BME280;22748;8.426;99.512;2023-04-04T00:09:21;100606.03;;;28.95;62.95
36798;BME280;22748;8.426;99.512;2023-04-04T00:11:51;100606.03;;;28.95;63.31
36798;BME280;22748;8.426;99.512;2023-04-04T00:14:23;100611.41;;;28.95;63.57
36798;BME280;22748;8.426;99.512;2023-04-04T00:16:53;100614.72;;;28.97;63.52
36798;BME280;22748;8.426;99.512;2023-04-04T00:19:25;100617.41;;;28.97;63.64
36798;BME280;22748;8.426;99.512;2023-04-04T00:21:57;100620.50;;;28.93;62.97
36798;BME280;22748;8.426;99.512;2023-04-04T00:24:28;100612.66;;;28.92;63.25
36798;BME280;22748;8.426;99.512;2023-04-04T00:27:00;100623.22;;;28.87;64.05
36798;BME280;22748;8.426;99.512;2023-04-04T00:29:31;100631.28;;;28.87;63.70
36798;BME280;22748;8.426;99.512;2023-04-04T00:32:05;100633.13;;;28.86;64.26
36798;BME280;22748;8.426;99.512;2023-04-04T00:34:36;100627.56;;;28.88;63.93
36798;BME280;22748;8.426;99.512;2023-04-04T00:37:08;100632.94;;;28.88;63.76
36798;BME280;22748;8.426;99.512;2023-04-04T00:39:40;100642.44;;;28.90;64.31
36798;BME280;22748;8.426;99.512;2023-04-04T00:42:10;100644.09;;;28.91;64.33
36798;BME280;22748;8.426;99.512;2023-04-04T00:44:47;100645.75;;;28.92;64.16
36798;BME280;22748;8.426;99.512;2023-04-04T00:47:22;100649.47;;;28.91;64.51
36798;BME280;22748;8.426;99.512;2023-04-04T00:49:54;100654.44;;;28.95;64.21
36798;BME280;22748;8.426;99.512;2023-04-04T00:52:26;100658.75;;;28.96;64.42
36798;BME280;22748;8.426;99.512;2023-04-04T00:54:58;100654.00;;;28.98;64.97
36798;BME280;22748;8.426;99.512;2023-04-04T00:57:29;100652.13;;;28.98;64.94
36798;BME280;22748;8.426;99.512;2023-04-04T01:00:06;100654.63;;;29.00;65.17
36798;BME280;22748;8.426;99.512;2023-04-04T01:02:43;100660.19;;;28.98;65.47
36798;BME280;22748;8.426;99.512;2023-04-04T01:05:18;100657.28;;;29.06;64.98
36798;BME280;22748;8.426;99.512;2023-04-04T01:07:50;100659.81;;;28.95;66.01
36798;BME280;22748;8.426;99.512;2023-04-04T01:10:21;100663.13;;;28.83;66.31
36798;BME280;22748;8.426;99.512;2023-04-04T01:12:53;100662.72;;;28.86;66.34
36798;BME280;22748;8.426;99.512;2023-04-04T01:15:29;100661.06;;;28.99;66.31
36798;BME280;22748;8.426;99.512;2023-04-04T01:18:02;100664.34;;;29.01;66.51
36798;BME280;22748;8.426;99.512;2023-04-04T01:20:56;100676.75;;;29.08;66.59
36798;BME280;22748;8.426;99.512;2023-04-04T01:23:59;100672.84;;;29.11;66.62
36798;BME280;22748;8.426;99.512;2023-04-04T01:26:51;100676.75;;;29.08;67.00
36798;BME280;22748;8.426;99.512;2023-04-04T01:29:27;100690.00;;;29.17;66.69
36798;BME280;22748;8.426;99.512;2023-04-04T01:32:07;100683.56;;;29.24;66.55
36798;BME280;22748;8.426;99.512;2023-04-04T01:34:47;100691.41;;;29.32;66.94
36798;BME280;22748;8.426;99.512;2023-04-04T01:37:33;100699.47;;;29.32;66.92
36798;BME280;22748;8.426;99.512;2023-04-04T01:40:10;100702.78;;;29.35;67.20
36798;BME280;22748;8.426;99.512;2023-04-04T01:42:56;100702.97;;;29.40;66.91
36798;BME280;22748;8.426;99.512;2023-04-04T01:45:28;100704.81;;;29.46;66.89
36798;BME280;22748;8.426;99.512;2023-04-04T01:48:06;100714.75;;;29.52;66.45
36798;BME280;22748;8.426;99.512;2023-04-04T01:50:38;100708.13;;;29.54;66.38
36798;BME280;22748;8.426;99.512;2023-04-04T01:53:08;100711.00;;;29.60;66.30
36798;BME280;22748;8.426;99.512;2023-04-04T01:55:40;100708.53;;;29.58;66.04
36798;BME280;22748;8.426;99.512;2023-04-04T01:58:24;100712.66;;;29.61;66.58
36798;BME280;22748;8.426;99.512;2023-04-04T02:00:58;100716.78;;;29.63;66.34
36798;BME280;22748;8.426;99.512;2023-04-04T02:03:35;100713.91;;;29.71;66.33
36798;BME280;22748;8.426;99.512;2023-04-04T02:06:10;100716.34;;;29.80;66.42
36798;BME280;22748;8.426;99.512;2023-04-04T02:08:41;100722.34;;;29.82;66.30
36798;BME280;22748;8.426;99.512;2023-04-04T02:11:11;100729.16;;;29.84;66.34
36798;BME280;22748;8.426;99.512;2023-04-04T02:13:45;100729.59;;;29.88;66.28
36798;BME280;22748;8.426;99.512;2023-04-04T02:16:15;100727.53;;;29.77;66.25
36798;BME280;22748;8.426;99.512;2023-04-04T02:18:54;100731.66;;;29.86;66.32
36798;BME280;22748;8.426;99.512;2023-04-04T02:21:26;100735.31;;;29.98;65.57
36798;BME280;22748;8.426;99.512;2023-04-04T02:24:03;100737.78;;;30.06;66.01
36798;BME280;22748;8.426;99.512;2023-04-04T02:26:35;100734.44;;;30.11;65.87
36798;BME280;22748;8.426;99.512;2023-04-04T02:29:07;100739.00;;;30.10;65.60
36798;BME280;22748;8.426;99.512;2023-04-04T02:31:38;100742.91;;;30.14;65.29
36798;BME280;22748;8.426;99.512;2023-04-04T02:34:10;100737.75;;;30.13;65.41
36798;BME280;22748;8.426;99.512;2023-04-04T02:36:46;100743.13;;;30.13;65.52
36798;BME280;22748;8.426;99.512;2023-04-04T02:39:19;100748.31;;;30.14;65.88
36798;BME280;22748;8.426;99.512;2023-04-04T02:41:51;100745.63;;;30.14;65.53
36798;BME280;22748;8.426;99.512;2023-04-04T02:44:35;100738.16;;;30.17;65.76
36798;BME280;22748;8.426;99.512;2023-04-04T02:47:06;100744.53;;;30.22;65.42
36798;BME280;22748;8.426;99.512;2023-04-04T02:49:37;100739.97;;;30.23;65.68
36798;BME280;22748;8.426;99.512;2023-04-04T02:52:14;100731.25;;;30.27;65.61
36798;BME280;22748;8.426;99.512;2023-04-04T02:54:44;100724.19;;;30.33;65.88
36798;BME280;22748;8.426;99.512;2023-04-04T02:57:17;100720.22;;;30.42;65.53
36798;BME280;22748;8.426;99.512;2023-04-04T02:59:51;100722.66;;;30.44;64.30
36798;BME280;22748;8.426;99.512;2023-04-04T03:02:23;100718.91;;;30.51;63.86
36798;BME280;22748;8.426;99.512;2023-04-04T03:04:54;100719.06;;;30.57;63.34
36798;BME280;22748;8.426;99.512;2023-04-04T03:07:40;100719.66;;;30.59;63.31
36798;BME280;22748;8.426;99.512;2023-04-04T03:10:11;100722.16;;;30.60;63.21
36798;BME280;22748;8.426;99.512;2023-04-04T03:12:42;100723.13;;;30.66;63.54
36798;BME280;22748;8.426;99.512;2023-04-04T03:15:15;100719.56;;;30.72;63.27
36798;BME280;22748;8.426;99.512;2023-04-04T03:17:45;100722.00;;;30.80;62.89
36798;BME280;22748;8.426;99.512;2023-04-04T03:20:16;100724.84;;;30.85;62.70
36798;BME280;22748;8.426;99.512;2023-04-04T03:22:47;100721.75;;;30.88;62.81
36798;BME280;22748;8.426;99.512;2023-04-04T03:25:25;100727.53;;;30.92;62.71
36798;BME280;22748;8.426;99.512;2023-04-04T03:27:55;100729.78;;;30.95;62.69
36798;BME280;22748;8.426;99.512;2023-04-04T03:30:32;100725.38;;;31.01;62.42
36798;BME280;22748;8.426;99.512;2023-04-04T03:33:04;100714.38;;;31.02;62.55
36798;BME280;22748;8.426;99.512;2023-04-04T03:35:38;100708.50;;;31.05;61.92
36798;BME280;22748;8.426;99.512;2023-04-04T03:38:11;100713.81;;;30.93;62.38
36798;BME280;22748;8.426;99.512;2023-04-04T03:40:42;100706.88;;;31.04;62.05
36798;BME280;22748;8.426;99.512;2023-04-04T03:43:12;100703.31;;;31.10;62.45
36798;BME280;22748;8.426;99.512;2023-04-04T03:45:45;100704.44;;;31.21;61.61
36798;BME280;22748;8.426;99.512;2023-04-04T03:48:18;100703.69;;;31.32;61.35
36798;BME280;22748;8.426;99.512;2023-04-04T03:50:52;100695.81;;;31.31;60.83
36798;BME280;22748;8.426;99.512;2023-04-04T03:53:24;100692.44;;;31.35;60.83
36798;BME280;22748;8.426;99.512;2023-04-04T03:55:56;100688.72;;;31.36;60.31
36798;BME280;22748;8.426;99.512;2023-04-04T03:58:28;100689.91;;;31.41;60.29
36798;BME280;22748;8.426;99.512;2023-04-04T04:01:01;100686.34;;;31.47;60.22
36798;BME280;22748;8.426;99.512;2023-04-04T04:03:31;100686.50;;;31.52;59.55
36798;BME280;22748;8.426;99.512;2023-04-04T04:06:02;100687.31;;;31.52;59.17
36798;BME280;22748;8.426;99.512;2023-04-04T04:08:37;100681.47;;;31.55;58.71
36798;BME280;22748;8.426;99.512;2023-04-04T04:11:09;100682.66;;;31.60;58.88
36798;BME280;22748;8.426;99.512;2023-04-04T04:13:51;100672.59;;;31.67;58.43
36798;BME280;22748;8.426;99.512;2023-04-04T04:16:34;100665.47;;;31.72;58.56
36798;BME280;22748;8.426;99.512;2023-04-04T04:19:14;100665.47;;;31.72;58.34
36798;BME280;22748;8.426;99.512;2023-04-04T04:21:44;100664.56;;;31.78;58.14
36798;BME280;22748;8.426;99.512;2023-04-04T04:24:27;100661.53;;;31.87;58.32
36798;BME280;22748;8.426;99.512;2023-04-04T04:26:59;100659.75;;;31.99;57.69
36798;BME280;22748;8.426;99.512;2023-04-04T04:29:31;100650.72;;;32.05;56.64
36798;BME280;22748;8.426;99.512;2023-04-04T04:32:35;100648.84;;;32.06;56.71
36798;BME280;22748;8.426;99.512;2023-04-04T04:35:20;100644.03;;;32.08;56.10
36798;BME280;22748;8.426;99.512;2023-04-04T04:37:57;100633.59;;;32.11;56.09
36798;BME280;22748;8.426;99.512;2023-04-04T04:40:33;100636.66;;;32.15;56.08
36798;BME280;22748;8.426;99.512;2023-04-04T04:43:04;100631.03;;;32.16;55.90
36798;BME280;22748;8.426;99.512;2023-04-04T04:45:35;100625.03;;;32.14;55.83
36798;BME280;22748;8.426;99.512;2023-04-04T04:48:13;100623.84;;;32.10;55.82
36798;BME280;22748;8.426;99.512;2023-04-04T04:50:44;100616.66;;;32.16;55.56
36798;BME280;22748;8.426;99.512;2023-04-04T04:53:15;100621.16;;;32.22;55.12
36798;BME280;22748;8.426;99.512;2023-04-04T04:55:46;100615.91;;;32.27;54.57
36798;BME280;22748;8.426;99.512;2023-04-04T04:58:20;100607.31;;;32.30;54.48
36798;BME280;22748;8.426;99.512;2023-04-04T05:00:58;100606.84;;;32.33;54.48
36798;BME280;22748;8.426;99.512;2023-04-04T05:03:42;100596.03;;;32.33;54.80
36798;BME280;22748;8.426;99.512;2023-04-04T05:06:14;100596.88;;;32.34;54.26
36798;BME280;22748;8.426;99.512;2023-04-04T05:08:46;100589.22;;;32.31;54.40
36798;BME280;22748;8.426;99.512;2023-04-04T05:11:17;100596.13;;;32.27;54.22
36798;BME280;22748;8.426;99.512;2023-04-04T05:13:48;100583.22;;;32.29;53.94
36798;BME280;22748;8.426;99.512;2023-04-04T05:16:23;100576.63;;;32.25;53.90
36798;BME280;22748;8.426;99.512;2023-04-04T05:18:56;100571.94;;;32.32;53.83
36798;BME280;22748;8.426;99.512;2023-04-04T05:21:26;100571.00;;;32.38;54.10
36798;BME280;22748;8.426;99.512;2023-04-04T05:23:59;100559.38;;;32.37;54.43
36798;BME280;22748;8.426;99.512;2023-04-04T05:26:30;100562.06;;;32.37;53.82
36798;BME280;22748;8.426;99.512;2023-04-04T05:29:01;100557.03;;;32.41;53.50
36798;BME280;22748;8.426;99.512;2023-04-04T05:31:32;100555.84;;;32.49;53.64
36798;BME280;22748;8.426;99.512;2023-04-04T05:34:11;100543.53;;;32.53;53.18
36798;BME280;22748;8.426;99.512;2023-04-04T05:36:41;100538.72;;;32.55;52.41
36798;BME280;22748;8.426;99.512;2023-04-04T05:39:12;100538.13;;;32.53;51.89
36798;BME280;22748;8.426;99.512;2023-04-04T05:41:45;100532.72;;;32.53;51.96
36798;BME280;22748;8.426;99.512;2023-04-04T05:44:17;100522.13;;;32.51;51.61
36798;BME280;22748;8.426;99.512;2023-04-04T05:46:48;100515.88;;;32.51;51.28
36798;BME280;22748;8.426;99.512;2023-04-04T05:49:31;100510.84;;;32.66;51.35
36798;BME280;22748;8.426;99.512;2023-04-04T05:52:03;100506.47;;;32.77;50.82
36798;BME280;22748;8.426;99.512;2023-04-04T05:54:34;100498.56;;;32.87;50.56
36798;BME280;22748;8.426;99.512;2023-04-04T05:57:08;100490.47;;;32.87;50.93
36798;BME280;22748;8.426;99.512;2023-04-04T05:59:40;100492.94;;;32.89;49.94
36798;BME280;22748;8.426;99.512;2023-04-04T06:02:12;100485.72;;;32.94;50.69
36798;BME280;22748;8.426;99.512;2023-04-04T06:04:52;100472.19;;;32.94;49.72
36798;BME280;22748;8.426;99.512;2023-04-04T06:07:23;100467.13;;;32.98;49.75
36798;BME280;22748;8.426;99.512;2023-04-04T06:09:58;100461.00;;;33.03;50.68
36798;BME280;22748;8.426;99.512;2023-04-04T06:12:38;100455.72;;;33.08;50.09
36798;BME280;22748;8.426;99.512;2023-04-04T06:15:14;100452.16;;;33.19;49.71
36798;BME280;22748;8.426;99.512;2023-04-04T06:17:46;100443.97;;;33.31;49.49
36798;BME280;22748;8.426;99.512;2023-04-04T06:20:30;100430.84;;;33.39;49.50
36798;BME280;22748;8.426;99.512;2023-04-04T06:23:07;100423.47;;;33.52;49.07
36798;BME280;22748;8.426;99.512;2023-04-04T06:25:36;100425.22;;;33.58;49.61
36798;BME280;22748;8.426;99.512;2023-04-04T06:28:06;100420.38;;;33.60;48.92
36798;BME280;22748;8.426;99.512;2023-04-04T06:30:39;100407.31;;;33.57;48.97
36798;BME280;22748;8.426;99.512;2023-04-04T06:33:14;100405.09;;;33.54;49.12
36798;BME280;22748;8.426;99.512;2023-04-04T06:35:47;100402.81;;;33.46;49.25
36798;BME280;22748;8.426;99.512;2023-04-04T06:38:17;100394.59;;;33.40;49.49
36798;BME280;22748;8.426;99.512;2023-04-04T06:40:51;100391.56;;;33.37;49.55
36798;BME280;22748;8.426;99.512;2023-04-04T06:43:22;100394.19;;;33.32;49.32
36798;BME280;22748;8.426;99.512;2023-04-04T06:45:53;100391.78;;;33.35;48.08
36798;BME280;22748;8.426;99.512;2023-04-04T06:48:26;100388.69;;;33.44;47.79
36798;BME280;22748;8.426;99.512;2023-04-04T06:51:04;100381.47;;;33.49;47.63
36798;BME280;22748;8.426;99.512;2023-04-04T06:53:35;100373.44;;;33.54;46.96
36798;BME280;22748;8.426;99.512;2023-04-04T06:56:07;100371.06;;;33.58;46.53
36798;BME280;22748;8.426;99.512;2023-04-04T06:58:38;100372.47;;;33.60;46.41
36798;BME280;22748;8.426;99.512;2023-04-04T07:01:08;100360.31;;;33.63;47.27
36798;BME280;22748;8.426;99.512;2023-04-04T07:03:39;100348.50;;;33.69;46.71
36798;BME280;22748;8.426;99.512;2023-04-04T07:06:13;100343.72;;;33.76;46.59
36798;BME280;22748;8.426;99.512;2023-04-04T07:08:44;100354.72;;;33.87;46.85
36798;BME280;22748;8.426;99.512;2023-04-04T07:11:15;100354.81;;;33.97;46.55
36798;BME280;22748;8.426;99.512;2023-04-04T07:13:47;100336.53;;;34.04;45.97
36798;BME280;22748;8.426;99.512;2023-04-04T07:16:21;100336.09;;;34.12;46.05
36798;BME280;22748;8.426;99.512;2023-04-04T07:18:58;100335.59;;;34.15;45.99
36798;BME280;22748;8.426;99.512;2023-04-04T07:21:37;100331.31;;;34.19;45.18
36798;BME280;22748;8.426;99.512;2023-04-04T07:24:10;100317.56;;;34.26;44.72
36798;BME280;22748;8.426;99.512;2023-04-04T07:26:41;100320.84;;;34.28;45.18
36798;BME280;22748;8.426;99.512;2023-04-04T07:29:12;100314.53;;;34.22;45.37
36798;BME280;22748;8.426;99.512;2023-04-04T07:31:45;100315.34;;;34.23;45.50
36798;BME280;22748;8.426;99.512;2023-04-04T07:34:16;100303.69;;;34.22;45.34
36798;BME280;22748;8.426;99.512;2023-04-04T07:36:48;100303.22;;;34.26;45.31
36798;BME280;22748;8.426;99.512;2023-04-04T07:39:20;100295.94;;;34.31;44.88
36798;BME280;22748;8.426;99.512;2023-04-04T07:41:50;100286.75;;;34.32;45.26
36798;BME280;22748;8.426;99.512;2023-04-04T07:44:20;100285.09;;;34.31;45.30
36798;BME280;22748;8.426;99.512;2023-04-04T07:46:51;100279.09;;;34.29;44.98
36798;BME280;22748;8.426;99.512;2023-04-04T07:49:21;100271.16;;;34.22;44.16
36798;BME280;22748;8.426;99.512;2023-04-04T07:51:53;100264.69;;;34.24;43.85
36798;BME280;22748;8.426;99.512;2023-04-04T07:54:29;100264.22;;;34.32;43.82
36798;BME280;22748;8.426;99.512;2023-04-04T07:57:00;100258.59;;;34.38;43.28
36798;BME280;22748;8.426;99.512;2023-04-04T07:59:32;100253.50;;;34.42;43.62
36798;BME280;22748;8.426;99.512;2023-04-04T08:02:02;100248.06;;;34.42;43.73
36798;BME280;22748;8.426;99.512;2023-04-04T08:04:32;100235.06;;;34.44;43.73
36798;BME280;22748;8.426;99.512;2023-04-04T08:07:04;100226.41;;;34.47;42.41
36798;BME280;22748;8.426;99.512;2023-04-04T08:09:38;100219.72;;;34.55;41.66
36798;BME280;22748;8.426;99.512;2023-04-04T08:12:10;100223.31;;;34.60;41.75
36798;BME280;22748;8.426;99.512;2023-04-04T08:14:42;100223.41;;;34.71;42.16
36798;BME280;22748;8.426;99.512;2023-04-04T08:17:13;100214.00;;;34.78;42.03
36798;BME280;22748;8.426;99.512;2023-04-04T08:19:49;100207.47;;;34.79;41.92
36798;BME280;22748;8.426;99.512;2023-04-04T08:22:34;100186.28;;;34.71;41.68
36798;BME280;22748;8.426;99.512;2023-04-04T08:25:07;100177.34;;;34.76;41.69
36798;BME280;22748;8.426;99.512;2023-04-04T08:27:39;100183.59;;;34.76;42.05
36798;BME280;22748;8.426;99.512;2023-04-04T08:30:12;100186.88;;;34.83;41.51
36798;BME280;22748;8.426;99.512;2023-04-04T08:32:45;100187.69;;;34.84;40.93
36798;BME280;22748;8.426;99.512;2023-04-04T08:35:17;100187.19;;;34.87;40.50
36798;BME280;22748;8.426;99.512;2023-04-04T08:37:55;100199.94;;;34.87;40.99
36798;BME280;22748;8.426;99.512;2023-04-04T08:40:25;100186.09;;;34.88;41.24
36798;BME280;22748;8.426;99.512;2023-04-04T08:42:58;100182.31;;;34.89;40.87
36798;BME280;22748;8.426;99.512;2023-04-04T08:45:31;100174.22;;;34.94;40.89
36798;BME280;22748;8.426;99.512;2023-04-04T08:48:05;100169.88;;;34.93;41.23
36798;BME280;22748;8.426;99.512;2023-04-04T08:50:39;100166.94;;;35.00;40.98
36798;BME280;22748;8.426;99.512;2023-04-04T08:53:12;100171.31;;;35.06;40.46
36798;BME280;22748;8.426;99.512;2023-04-04T08:55:59;100166.69;;;35.07;40.96
36798;BME280;22748;8.426;99.512;2023-04-04T08:58:29;100165.59;;;35.02;40.82
36798;BME280;22748;8.426;99.512;2023-04-04T09:01:05;100166.16;;;35.05;40.46
36798;BME280;22748;8.426;99.512;2023-04-04T09:03:37;100160.19;;;35.08;40.41
36798;BME280;22748;8.426;99.512;2023-04-04T09:06:09;100164.00;;;35.12;40.07
36798;BME280;22748;8.426;99.512;2023-04-04T09:08:45;100165.09;;;35.11;39.38
36798;BME280;22748;8.426;99.512;2023-04-04T09:11:20;100168.63;;;35.11;39.12
36798;BME280;22748;8.426;99.512;2023-04-04T09:13:53;100153.97;;;35.12;39.23
36798;BME280;22748;8.426;99.512;2023-04-04T09:16:24;100165.16;;;35.16;38.92
36798;BME280;22748;8.426;99.512;2023-04-04T09:18:56;100167.59;;;35.17;39.23
36798;BME280;22748;8.426;99.512;2023-04-04T09:21:26;100155.41;;;35.20;39.10
36798;BME280;22748;8.426;99.512;2023-04-04T09:24:02;100151.03;;;35.19;39.86
36798;BME280;22748;8.426;99.512;2023-04-04T09:26:47;100144.78;;;35.13;40.16
36798;BME280;22748;8.426;99.512;2023-04-04T09:29:18;100133.13;;;35.13;39.62
36798;BME280;22748;8.426;99.512;2023-04-04T09:31:50;100151.03;;;35.14;39.66
36798;BME280;22748;8.426;99.512;2023-04-04T09:34:20;100138.81;;;35.16;39.87
36798;BME280;22748;8.426;99.512;2023-04-04T09:36:52;100123.91;;;35.19;39.66
36798;BME280;22748;8.426;99.512;2023-04-04T09:39:27;100120.66;;;35.22;39.69
36798;BME280;22748;8.426;99.512;2023-04-04T09:41:59;100114.69;;;35.25;39.42
36798;BME280;22748;8.426;99.512;2023-04-04T09:44:35;100113.34;;;35.28;39.43
36798;BME280;22748;8.426;99.512;2023-04-04T09:47:23;100119.63;;;35.28;39.67
36798;BME280;22748;8.426;99.512;2023-04-04T09:49:57;100112.84;;;35.31;40.00
36798;BME280;22748;8.426;99.512;2023-04-04T09:52:34;100109.03;;;35.32;40.11
36798;BME280;22748;8.426;99.512;2023-04-04T09:55:06;100105.75;;;35.30;40.30
36798;BME280;22748;8.426;99.512;2023-04-04T09:57:37;100110.38;;;35.29;40.40
36798;BME280;22748;8.426;99.512;2023-04-04T10:00:17;100113.34;;;35.28;41.16
36798;BME280;22748;8.426;99.512;2023-04-04T10:02:49;100116.91;;;35.28;40.79
36798;BME280;22748;8.426;99.512;2023-04-04T10:05:25;100122.59;;;35.27;40.98
36798;BME280;22748;8.426;99.512;2023-04-04T10:07:57;100117.41;;;35.25;42.14
36798;BME280;22748;8.426;99.512;2023-04-04T10:10:29;100116.84;;;35.18;43.04
36798;BME280;22748;8.426;99.512;2023-04-04T10:13:01;100114.13;;;35.18;43.73
36798;BME280;22748;8.426;99.512;2023-04-04T10:15:35;100125.38;;;34.94;44.95
36798;BME280;22748;8.426;99.512;2023-04-04T10:18:07;100119.38;;;34.87;45.54
36798;BME280;22748;8.426;99.512;2023-04-04T10:20:39;100127.53;;;34.92;45.97
36798;BME280;22748;8.426;99.512;2023-04-04T10:23:18;100122.16;;;34.97;46.00
36798;BME280;22748;8.426;99.512;2023-04-04T10:26:04;100130.50;;;34.91;46.23
36798;BME280;22748;8.426;99.512;2023-04-04T10:28:36;100134.53;;;34.83;46.80
36798;BME280;22748;8.426;99.512;2023-04-04T10:31:15;100131.84;;;34.88;46.83
36798;BME280;22748;8.426;99.512;2023-04-04T10:34:04;100130.16;;;34.82;47.13
36798;BME280;22748;8.426;99.512;2023-04-04T10:36:44;100138.03;;;34.78;47.22
36798;BME280;22748;8.426;99.512;2023-04-04T10:39:20;100135.00;;;34.70;47.29
36798;BME280;22748;8.426;99.512;2023-04-04T10:41:55;100150.16;;;34.66;47.37
36798;BME280;22748;8.426;99.512;2023-04-04T10:44:29;100142.56;;;34.68;47.31
36798;BME280;22748;8.426;99.512;2023-04-04T10:47:10;100145.03;;;34.69;47.49
36798;BME280;22748;8.426;99.512;2023-04-04T10:49:44;100139.59;;;34.69;47.24
36798;BME280;22748;8.426;99.512;2023-04-04T10:52:17;100146.19;;;34.51;47.52
36798;BME280;22748;8.426;99.512;2023-04-04T10:54:51;100160.84;;;34.50;48.05
36798;BME280;22748;8.426;99.512;2023-04-04T10:57:24;100162.22;;;34.53;47.50
36798;BME280;22748;8.426;99.512;2023-04-04T10:59:59;100177.94;;;34.51;48.02
36798;BME280;22748;8.426;99.512;2023-04-04T11:02:53;100196.69;;;34.57;48.00
36798;BME280;22748;8.426;99.512;2023-04-04T11:05:25;100192.97;;;34.64;47.71
36798;BME280;22748;8.426;99.512;2023-04-04T11:07:57;100195.16;;;34.67;47.37
36798;BME280;22748;8.426;99.512;2023-04-04T11:28:58;100243.34;;;34.59;47.05
36798;BME280;22748;8.426;99.512;2023-04-04T11:31:33;100231.38;;;34.55;47.13
36798;BME280;22748;8.426;99.512;2023-04-04T11:34:04;100243.03;;;34.56;47.26
36798;BME280;22748;8.426;99.512;2023-04-04T11:36:54;100246.53;;;34.51;47.32
36798;BME280;22748;8.426;99.512;2023-04-04T11:56:19;100279.63;;;34.53;47.51
36798;BME280;22748;8.426;99.512;2023-04-04T11:58:52;100290.75;;;34.52;47.96
36798;BME280;22748;8.426;99.512;2023-04-04T12:01:23;100299.69;;;34.52;48.03
36798;BME280;22748;8.426;99.512;2023-04-04T12:03:54;100307.84;;;34.52;48.15
36798;BME280;22748;8.426;99.512;2023-04-04T12:06:28;100309.97;;;34.50;48.29
36798;BME280;22748;8.426;99.512;2023-04-04T12:09:01;100324.59;;;34.49;48.52
36798;BME280;22748;8.426;99.512;2023-04-04T12:11:34;100337.59;;;34.47;48.42
36798;BME280;22748;8.426;99.512;2023-04-04T12:14:05;100343.84;;;34.48;48.52
36798;BME280;22748;8.426;99.512;2023-04-04T12:16:44;100353.56;;;34.44;48.22
36798;BME280;22748;8.426;99.512;2023-04-04T12:19:17;100371.16;;;34.41;48.38
36798;BME280;22748;8.426;99.512;2023-04-04T12:21:47;100387.09;;;34.37;48.18
36798;BME280;22748;8.426;99.512;2023-04-04T12:24:19;100398.69;;;34.33;48.16
36798;BME280;22748;8.426;99.512;2023-04-04T12:26:54;100401.66;;;34.31;48.05
36798;BME280;22748;8.426;99.512;2023-04-04T12:29:27;100397.31;;;34.30;48.13
36798;BME280;22748;8.426;99.512;2023-04-04T12:32:02;100401.91;;;34.30;47.83
36798;BME280;22748;8.426;99.512;2023-04-04T12:34:33;100405.69;;;34.29;48.02
36798;BME280;22748;8.426;99.512;2023-04-04T12:37:09;100405.69;;;34.29;47.98
36798;BME280;22748;8.426;99.512;2023-04-04T12:39:46;100395.09;;;34.27;48.12
36798;BME280;22748;8.426;99.512;2023-04-04T12:42:23;100403.50;;;34.26;48.13
36798;BME280;22748;8.426;99.512;2023-04-04T12:44:55;100417.88;;;34.26;48.28
36798;BME280;22748;8.426;99.512;2023-04-04T12:47:26;100418.06;;;34.19;48.15
36798;BME280;22748;8.426;99.512;2023-04-04T12:49:57;100423.28;;;34.09;48.27
36798;BME280;22748;8.426;99.512;2023-04-04T12:52:29;100421.84;;;34.01;48.69
36798;BME280;22748;8.426;99.512;2023-04-04T12:55:05;100436.69;;;33.99;48.92
36798;BME280;22748;8.426;99.512;2023-04-04T12:57:38;100448.59;;;33.98;48.96
36798;BME280;22748;8.426;99.512;2023-04-04T13:00:12;100456.81;;;33.86;49.17
36798;BME280;22748;8.426;99.512;2023-04-04T13:02:44;100458.63;;;33.80;49.17
36798;BME280;22748;8.426;99.512;2023-04-04T13:05:16;100459.28;;;33.71;49.17
36798;BME280;22748;8.426;99.512;2023-04-04T13:07:49;100454.38;;;33.68;48.27
36798;BME280;22748;8.426;99.512;2023-04-04T13:10:20;100475.16;;;33.50;48.18
36798;BME280;22748;8.426;99.512;2023-04-04T13:13:00;100475.16;;;33.50;47.67
36798;BME280;22748;8.426;99.512;2023-04-04T13:15:49;100475.25;;;33.55;47.55
36798;BME280;22748;8.426;99.512;2023-04-04T13:18:21;100474.53;;;33.60;47.29
36798;BME280;22748;8.426;99.512;2023-04-04T13:20:52;100485.34;;;33.60;47.65
36798;BME280;22748;8.426;99.512;2023-04-04T13:23:23;100497.34;;;33.64;47.26
36798;BME280;22748;8.426;99.512;2023-04-04T13:25:54;100498.66;;;33.62;46.91
36798;BME280;22748;8.426;99.512;2023-04-04T13:28:26;100508.97;;;33.48;46.82
36798;BME280;22748;8.426;99.512;2023-04-04T13:30:57;100512.56;;;33.36;47.19
36798;BME280;22748;8.426;99.512;2023-04-04T13:33:30;100511.00;;;33.40;47.33
36798;BME280;22748;8.426;99.512;2023-04-04T13:36:02;100527.34;;;33.46;47.40
36798;BME280;22748;8.426;99.512;2023-04-04T13:38:32;100526.25;;;33.47;47.55
36798;BME280;22748;8.426;99.512;2023-04-04T13:41:02;100533.91;;;33.50;47.57
36798;BME280;22748;8.426;99.512;2023-04-04T13:43:34;100530.13;;;33.51;47.79
36798;BME280;22748;8.426;99.512;2023-04-04T13:46:04;100529.66;;;33.54;47.66
36798;BME280;22748;8.426;99.512;2023-04-04T13:48:38;100533.41;;;33.53;47.91
36798;BME280;22748;8.426;99.512;2023-04-04T13:51:10;100530.13;;;33.51;48.36
36798;BME280;22748;8.426;99.512;2023-04-04T13:53:42;100544.75;;;33.50;48.27
36798;BME280;22748;8.426;99.512;2023-04-04T13:56:16;100539.31;;;33.50;48.83
36798;BME280;22748;8.426;99.512;2023-04-04T13:58:49;100538.81;;;33.53;48.79
36798;BME280;22748;8.426;99.512;2023-04-04T14:01:21;100546.47;;;33.56;49.00